createdAt,value
2022-12-16T00:00:07.255Z,20.65
2022-12-16T00:02:34.027Z,21.30
2022-12-16T00:05:00.730Z,21.58
2022-12-16T00:07:27.436Z,18.80
2022-12-16T00:09:54.053Z,17.10
2022-12-16T00:12:21.360Z,16.50
2022-12-16T00:14:47.975Z,15.25
2022-12-16T00:17:14.586Z,15.32
2022-12-16T00:19:41.238Z,16.52
2022-12-16T00:22:07.906Z,15.85
2022-12-16T00:24:35.084Z,19.98
2022-12-16T00:27:02.906Z,16.60
2022-12-16T00:29:29.558Z,16.10
2022-12-16T00:31:56.181Z,17.60
2022-12-16T00:34:22.966Z,15.05
2022-12-16T00:36:49.606Z,14.20
2022-12-16T00:39:16.395Z,18.08
2022-12-16T00:41:43.094Z,17.63
2022-12-16T00:44:09.731Z,16.23
2022-12-16T00:46:36.399Z,17.73
2022-12-16T00:49:03.152Z,18.05
2022-12-16T00:51:29.788Z,19.10
2022-12-16T00:53:56.450Z,17.50
2022-12-16T00:56:23.142Z,14.52
2022-12-16T00:58:50.394Z,13.52
2022-12-16T01:01:17.502Z,13.63
2022-12-16T01:03:44.294Z,15.68
2022-12-16T01:06:16.464Z,14.27
2022-12-16T01:08:49.907Z,14.85
2022-12-16T01:11:20.215Z,12.88
2022-12-16T01:13:51.196Z,13.82
2022-12-16T01:16:19.454Z,14.52
2022-12-16T01:18:46.256Z,17.55
2022-12-16T01:21:15.125Z,16.45
2022-12-16T01:23:42.073Z,18.05
2022-12-16T01:26:16.166Z,18.70
2022-12-16T01:28:42.829Z,18.95
2022-12-16T01:31:09.494Z,16.75
2022-12-16T01:33:36.490Z,15.35
2022-12-16T01:36:06.570Z,13.68
2022-12-16T01:38:33.905Z,13.65
2022-12-16T01:41:00.937Z,15.38
2022-12-16T01:43:31.601Z,15.25
2022-12-16T01:46:23.262Z,14.47
2022-12-16T01:48:58.904Z,16.83
2022-12-16T01:51:50.486Z,15.00
2022-12-16T01:54:24.810Z,13.00
2022-12-16T01:56:59.811Z,13.27
2022-12-16T01:59:28.763Z,12.70
2022-12-16T02:01:56.216Z,12.07
2022-12-16T02:04:22.995Z,12.63
2022-12-16T02:06:49.828Z,13.85
2022-12-16T02:09:17.774Z,13.65
2022-12-16T02:12:29.578Z,13.38
2022-12-16T02:15:29.220Z,15.13
2022-12-16T02:18:12.163Z,13.90
2022-12-16T02:21:04.241Z,17.55
2022-12-16T02:26:33.349Z,11.02
2022-12-16T02:29:02.926Z,11.95
2022-12-16T02:32:11.594Z,14.15
2022-12-16T02:34:56.279Z,14.63
2022-12-16T02:37:52.942Z,16.23
2022-12-16T02:40:32.524Z,15.77
2022-12-16T02:43:11.322Z,15.60
2022-12-16T02:45:38.749Z,14.20
2022-12-16T02:48:05.801Z,13.98
2022-12-16T02:50:39.825Z,16.80
2022-12-16T02:53:09.627Z,16.33
2022-12-16T02:55:49.206Z,13.70
2022-12-16T02:58:24.718Z,11.52
2022-12-16T03:01:13.133Z,11.35
2022-12-16T03:03:49.941Z,11.95
2022-12-16T03:06:19.394Z,16.45
2022-12-16T03:08:51.236Z,14.27
2022-12-16T03:11:18.041Z,13.55
2022-12-16T03:13:56.128Z,12.65
2022-12-16T03:16:28.856Z,11.10
2022-12-16T03:18:59.509Z,11.88
2022-12-16T03:21:30.008Z,11.93
2022-12-16T03:24:01.100Z,15.10
2022-12-16T03:27:02.469Z,12.55
2022-12-16T03:29:44.238Z,15.00
2022-12-16T03:32:25.756Z,15.55
2022-12-16T03:35:07.785Z,15.45
2022-12-16T03:40:06.717Z,11.65
2022-12-16T03:42:34.851Z,12.60
2022-12-16T03:45:02.039Z,11.75
2022-12-16T03:47:29.716Z,11.82
2022-12-16T03:49:56.402Z,13.80
2022-12-16T03:52:23.168Z,13.32
2022-12-16T03:54:49.811Z,14.18
2022-12-16T03:57:16.469Z,12.30
2022-12-16T03:59:43.379Z,12.05
2022-12-16T04:02:10.128Z,11.63
2022-12-16T04:04:37.106Z,11.75
2022-12-16T04:07:21.892Z,10.10
2022-12-16T04:09:49.488Z,12.05
2022-12-16T04:12:34.819Z,10.27
2022-12-16T04:15:20.451Z,10.32
2022-12-16T04:18:05.551Z,11.85
2022-12-16T04:20:55.241Z,12.95
2022-12-16T04:23:43.770Z,14.82
2022-12-16T04:26:11.135Z,11.90
2022-12-16T04:28:37.888Z,12.02
2022-12-16T04:31:04.845Z,11.45
2022-12-16T04:33:50.630Z,10.77
2022-12-16T04:36:35.742Z,11.38
2022-12-16T04:39:21.208Z,12.88
2022-12-16T04:42:06.720Z,13.52
2022-12-16T04:44:51.866Z,13.25
2022-12-16T04:47:37.170Z,12.85
2022-12-16T04:50:22.775Z,11.23
2022-12-16T04:53:10.613Z,12.95
2022-12-16T04:56:02.129Z,13.07
2022-12-16T04:58:49.413Z,13.15
2022-12-16T05:01:34.500Z,11.32
2022-12-16T05:04:19.727Z,11.80
2022-12-16T05:07:05.877Z,11.07
2022-12-16T05:09:51.353Z,14.40
2022-12-16T05:12:37.013Z,12.57
2022-12-16T05:15:22.230Z,11.15
2022-12-16T05:18:07.348Z,11.75
2022-12-16T05:20:52.536Z,10.55
2022-12-16T05:23:38.107Z,10.60
2022-12-16T05:26:23.432Z,10.20
2022-12-16T05:29:08.548Z,10.00
2022-12-16T05:31:53.928Z,9.80
2022-12-16T05:34:39.096Z,9.23
2022-12-16T05:37:24.445Z,9.85
2022-12-16T05:40:09.545Z,10.65
2022-12-16T05:42:54.938Z,9.90
2022-12-16T05:45:40.348Z,8.93
2022-12-16T05:48:25.784Z,8.32
2022-12-16T05:51:11.338Z,9.25
2022-12-16T05:54:16.414Z,8.82
2022-12-16T05:57:02.998Z,8.70
2022-12-16T05:59:48.216Z,9.38
2022-12-16T06:02:33.366Z,10.38
2022-12-16T06:05:18.641Z,10.27
2022-12-16T06:08:10.111Z,9.38
2022-12-16T06:10:55.268Z,10.35
2022-12-16T06:13:40.460Z,9.32
2022-12-16T06:16:26.144Z,9.88
2022-12-16T06:19:11.312Z,10.45
2022-12-16T06:21:56.831Z,9.20
2022-12-16T06:24:42.093Z,8.25
2022-12-16T06:27:27.526Z,8.55
2022-12-16T06:30:12.652Z,9.38
2022-12-16T06:32:58.027Z,7.68
2022-12-16T06:35:43.080Z,8.15
2022-12-16T06:38:28.254Z,8.73
2022-12-16T06:41:13.806Z,9.10
2022-12-16T06:43:58.893Z,8.18
2022-12-16T06:46:44.239Z,7.68
2022-12-16T06:49:29.702Z,8.10
2022-12-16T06:52:14.905Z,8.32
2022-12-16T06:55:00.429Z,8.63
2022-12-16T06:57:45.874Z,7.97
2022-12-16T07:00:31.304Z,12.55
2022-12-16T07:03:16.627Z,14.13
2022-12-16T07:06:02.862Z,13.25
2022-12-16T07:08:48.246Z,13.63
2022-12-16T07:11:33.554Z,13.00
2022-12-16T07:14:18.710Z,11.45
2022-12-16T07:17:03.862Z,11.98
2022-12-16T07:19:49.204Z,10.35
2022-12-16T07:22:34.811Z,9.18
2022-12-16T07:25:20.214Z,8.73
2022-12-16T07:28:10.733Z,10.25
2022-12-16T07:31:01.004Z,8.55
2022-12-16T07:33:46.303Z,9.45
2022-12-16T07:36:31.722Z,9.05
2022-12-16T07:39:16.982Z,9.65
2022-12-16T07:42:04.953Z,10.07
2022-12-16T07:44:50.280Z,9.45
2022-12-16T07:47:35.825Z,9.35
2022-12-16T07:50:22.032Z,9.30
2022-12-16T07:53:14.038Z,8.35
2022-12-16T07:58:44.704Z,13.63
2022-12-16T08:01:30.249Z,15.32
2022-12-16T08:04:15.591Z,14.80
2022-12-16T08:07:00.980Z,13.05
2022-12-16T08:09:47.211Z,12.05
2022-12-16T08:12:32.718Z,13.02
2022-12-16T08:15:17.869Z,10.95
2022-12-16T08:18:30.429Z,10.43
2022-12-16T08:21:15.783Z,9.15
2022-12-16T08:24:00.890Z,8.52
2022-12-16T08:26:46.344Z,9.98
2022-12-16T08:29:46.897Z,8.88
2022-12-16T08:32:33.485Z,8.95
2022-12-16T08:35:19.507Z,8.95
2022-12-16T08:38:10.564Z,9.52
2022-12-16T08:41:00.569Z,8.88
2022-12-16T08:43:46.464Z,9.40
2022-12-16T08:46:31.998Z,9.80
2022-12-16T08:49:17.553Z,12.25
2022-12-16T08:52:02.904Z,13.98
2022-12-16T08:54:48.494Z,16.42
2022-12-16T08:57:33.871Z,23.40
2022-12-16T09:00:19.296Z,11.80
2022-12-16T09:03:04.906Z,10.52
2022-12-16T09:05:50.348Z,10.65
2022-12-16T09:08:36.237Z,10.10
2022-12-16T09:11:21.636Z,11.10
2022-12-16T09:14:07.154Z,11.07
2022-12-16T09:16:52.646Z,10.40
2022-12-16T09:19:38.454Z,10.55
2022-12-16T09:22:24.043Z,12.25
2022-12-16T09:25:12.127Z,11.70
2022-12-16T09:27:58.403Z,10.38
2022-12-16T09:30:43.715Z,12.20
2022-12-16T09:33:29.172Z,11.63
2022-12-16T09:36:14.981Z,12.23
2022-12-16T09:39:00.347Z,12.27
2022-12-16T09:41:45.892Z,10.98
2022-12-16T09:44:57.977Z,9.75
2022-12-16T09:47:53.565Z,10.15
2022-12-16T09:50:44.702Z,10.38
2022-12-16T09:53:33.654Z,11.37
2022-12-16T09:56:23.347Z,10.88
2022-12-16T09:59:16.985Z,10.57
2022-12-16T10:02:03.492Z,11.27
2022-12-16T10:04:48.909Z,11.32
2022-12-16T10:07:42.109Z,10.50
2022-12-16T10:10:37.285Z,10.75
2022-12-16T10:13:55.384Z,11.48
2022-12-16T10:17:07.546Z,11.25
2022-12-16T10:20:33.272Z,11.05
2022-12-16T10:23:29.066Z,11.40
2022-12-16T10:26:49.640Z,10.48
2022-12-16T10:29:37.551Z,10.30
2022-12-16T10:32:47.849Z,9.23
2022-12-16T10:35:51.784Z,9.70
2022-12-16T10:38:57.029Z,9.80
2022-12-16T10:41:46.897Z,9.48
2022-12-16T10:44:50.584Z,9.70
2022-12-16T10:47:38.027Z,9.60
2022-12-16T10:50:23.646Z,10.23
2022-12-16T10:53:18.532Z,9.50
2022-12-16T10:56:41.740Z,12.30
2022-12-16T10:59:27.804Z,12.32
2022-12-16T11:02:18.428Z,14.07
2022-12-16T11:05:04.843Z,12.70
2022-12-16T11:08:12.168Z,11.98
2022-12-16T11:10:59.656Z,10.80
2022-12-16T11:13:53.719Z,11.88
2022-12-16T11:16:44.674Z,12.32
2022-12-16T11:19:42.209Z,12.38
2022-12-16T11:22:40.019Z,11.05
2022-12-16T11:25:31.086Z,10.98
2022-12-16T11:28:42.243Z,10.32
2022-12-16T11:31:33.327Z,10.15
2022-12-16T11:34:21.290Z,9.73
2022-12-16T11:37:11.133Z,10.02
2022-12-16T11:39:56.968Z,8.50
2022-12-16T11:42:46.546Z,9.07
2022-12-16T11:45:35.751Z,9.68
2022-12-16T11:48:54.707Z,9.68
2022-12-16T11:51:42.373Z,9.45
2022-12-16T11:54:39.686Z,8.57
2022-12-16T11:57:35.030Z,9.07
2022-12-16T12:00:21.289Z,7.80
2022-12-16T12:03:11.171Z,9.50
2022-12-16T12:05:56.569Z,8.38
2022-12-16T12:09:07.186Z,8.68
2022-12-16T12:11:57.324Z,9.63
2022-12-16T12:15:07.134Z,7.85
2022-12-16T12:18:12.491Z,10.13
2022-12-16T12:21:08.076Z,8.68
2022-12-16T12:24:31.351Z,7.93
2022-12-16T12:27:36.559Z,8.40
2022-12-16T12:30:33.118Z,8.93
2022-12-16T12:33:27.248Z,9.60
2022-12-16T12:36:12.655Z,10.30
2022-12-16T12:39:16.811Z,10.70
2022-12-16T12:42:23.085Z,11.70
2022-12-16T12:45:11.592Z,12.00
2022-12-16T12:48:05.670Z,11.90
2022-12-16T12:51:10.864Z,10.98
2022-12-16T12:54:09.097Z,10.23
2022-12-16T12:57:10.002Z,10.02
2022-12-16T13:00:14.744Z,11.10
2022-12-16T13:03:13.259Z,10.57
2022-12-16T13:06:00.458Z,9.50
2022-12-16T13:09:03.883Z,10.50
2022-12-16T13:11:49.522Z,9.90
2022-12-16T13:14:49.717Z,10.35
2022-12-16T13:17:35.229Z,9.63
2022-12-16T13:20:21.846Z,9.63
2022-12-16T13:23:07.271Z,8.48
2022-12-16T13:26:08.054Z,9.27
2022-12-16T13:28:57.240Z,8.13
2022-12-16T13:31:43.649Z,8.75
2022-12-16T13:34:38.218Z,7.90
2022-12-16T13:37:29.802Z,8.30
2022-12-16T13:40:30.765Z,8.40
2022-12-16T13:43:20.577Z,7.90
2022-12-16T13:46:23.729Z,7.05
2022-12-16T13:49:08.886Z,7.57
2022-12-16T13:51:56.932Z,8.25
2022-12-16T13:54:54.796Z,8.32
2022-12-16T13:57:42.664Z,7.88
2022-12-16T14:00:41.226Z,7.50
2022-12-16T14:03:38.759Z,7.28
2022-12-16T14:06:29.550Z,6.72
2022-12-16T14:09:14.948Z,7.57
2022-12-16T14:12:17.024Z,7.05
2022-12-16T14:15:26.226Z,6.60
2022-12-16T14:18:40.565Z,6.70
2022-12-16T14:21:34.673Z,6.00
2022-12-16T14:24:29.133Z,5.53
2022-12-16T14:27:15.108Z,5.72
2022-12-16T14:30:02.989Z,5.93
2022-12-16T14:32:53.452Z,5.43
2022-12-16T14:35:44.153Z,5.15
2022-12-16T14:38:49.610Z,4.55
2022-12-16T14:41:39.662Z,4.20
2022-12-16T14:44:35.846Z,3.33
2022-12-16T14:47:21.491Z,4.22
2022-12-16T14:50:11.630Z,3.47
2022-12-16T14:52:57.386Z,3.20
2022-12-16T14:55:48.739Z,3.42
2022-12-16T14:58:39.252Z,3.13
2022-12-16T15:01:43.611Z,3.22
2022-12-16T15:04:40.805Z,2.88
2022-12-16T15:07:34.243Z,3.03
2022-12-16T15:10:20.088Z,3.58
2022-12-16T15:13:07.797Z,3.10
2022-12-16T15:16:04.984Z,3.05
2022-12-16T15:18:55.494Z,2.45
2022-12-16T15:21:42.535Z,3.05
2022-12-16T15:24:29.431Z,2.30
2022-12-16T15:27:39.540Z,2.72
2022-12-16T15:30:49.871Z,2.60
2022-12-16T15:33:37.957Z,2.50
2022-12-16T15:36:24.787Z,2.35
2022-12-16T15:39:09.975Z,2.70
2022-12-16T15:41:56.709Z,2.75
2022-12-16T15:44:44.659Z,2.47
2022-12-16T15:47:49.182Z,2.72
2022-12-16T15:50:37.411Z,2.78
2022-12-16T15:53:49.125Z,3.00
2022-12-16T15:56:43.421Z,3.83
2022-12-16T15:59:45.768Z,3.78
2022-12-16T16:02:33.840Z,4.68
2022-12-16T16:05:19.640Z,4.78
2022-12-16T16:08:05.293Z,13.80
2022-12-16T16:10:51.502Z,6.15
2022-12-16T16:13:37.003Z,7.10
2022-12-16T16:16:22.912Z,6.50
2022-12-16T16:19:07.993Z,10.30
2022-12-16T16:21:53.545Z,7.63
2022-12-16T16:24:38.596Z,10.80
2022-12-16T16:27:29.720Z,11.88
2022-12-16T16:30:16.397Z,10.65
2022-12-16T16:33:02.537Z,6.65
2022-12-16T16:35:50.673Z,11.13
2022-12-16T16:38:36.013Z,13.68
2022-12-16T16:41:21.306Z,11.43
2022-12-16T16:44:06.585Z,11.63
2022-12-16T16:46:59.488Z,11.15
2022-12-16T16:49:53.316Z,12.32
2022-12-16T16:52:40.854Z,11.90
2022-12-16T16:55:32.302Z,14.80
2022-12-16T16:58:17.570Z,16.53
2022-12-16T17:01:02.872Z,16.92
2022-12-16T17:03:48.645Z,11.50
2022-12-16T17:06:34.209Z,13.15
2022-12-16T17:09:19.581Z,12.85
2022-12-16T17:12:04.978Z,12.43
2022-12-16T17:14:50.734Z,11.43
2022-12-16T17:17:35.949Z,11.38
2022-12-16T17:20:25.286Z,10.65
2022-12-16T17:23:10.823Z,10.20
2022-12-16T17:25:56.426Z,14.68
2022-12-16T17:28:41.534Z,15.32
2022-12-16T17:31:27.056Z,13.07
2022-12-16T17:34:12.669Z,18.02
2022-12-16T17:36:58.219Z,15.30
2022-12-16T17:39:43.483Z,12.02
2022-12-16T17:42:28.870Z,11.25
2022-12-16T17:45:14.161Z,12.60
2022-12-16T17:47:59.673Z,13.50
2022-12-16T17:50:45.122Z,12.23
2022-12-16T17:53:30.824Z,15.00
2022-12-16T17:56:22.027Z,12.05
2022-12-16T17:59:09.822Z,11.77
2022-12-16T18:01:56.877Z,10.88
2022-12-16T18:04:42.104Z,13.23
2022-12-16T18:07:27.464Z,13.32
2022-12-16T18:10:12.729Z,15.50
2022-12-16T18:12:58.526Z,13.77
2022-12-16T18:15:43.771Z,20.05
2022-12-16T18:18:28.983Z,22.02
2022-12-16T18:21:15.372Z,22.40
2022-12-16T18:24:03.668Z,21.90
2022-12-16T18:26:49.012Z,23.33
2022-12-16T18:29:34.202Z,15.90
2022-12-16T18:32:19.522Z,14.32
2022-12-16T18:35:04.599Z,14.20
2022-12-16T18:37:49.612Z,12.73
2022-12-16T18:40:34.821Z,13.63
2022-12-16T18:43:19.924Z,15.48
2022-12-16T18:46:11.045Z,13.73
2022-12-16T18:48:56.893Z,13.57
2022-12-16T18:51:42.488Z,14.70
2022-12-16T18:54:30.126Z,17.85
2022-12-16T18:57:15.220Z,15.88
2022-12-16T19:00:00.281Z,19.13
2022-12-16T19:02:45.506Z,21.20
2022-12-16T19:05:30.701Z,17.65
2022-12-16T19:08:15.778Z,17.15
2022-12-16T19:11:01.192Z,14.88
2022-12-16T19:13:46.509Z,15.48
2022-12-16T19:19:00.515Z,19.85
2022-12-16T19:22:05.820Z,20.70
2022-12-16T19:24:51.025Z,20.08
2022-12-16T19:27:37.089Z,25.05
2022-12-16T19:30:22.391Z,24.05
2022-12-16T19:33:07.958Z,18.35
2022-12-16T19:38:58.322Z,24.13
2022-12-16T19:41:43.837Z,15.98
2022-12-16T19:44:29.446Z,14.90
2022-12-16T19:47:14.540Z,14.70
2022-12-16T19:50:00.088Z,14.70
2022-12-16T19:52:45.265Z,15.00
2022-12-16T19:55:30.780Z,14.43
2022-12-16T19:58:16.176Z,16.20
2022-12-16T20:01:01.500Z,19.70
2022-12-16T20:03:47.659Z,16.80
2022-12-16T20:06:34.196Z,17.73
2022-12-16T20:09:19.429Z,20.15
2022-12-16T20:12:04.602Z,23.58
2022-12-16T20:14:49.731Z,22.70
2022-12-16T20:17:35.488Z,18.60
2022-12-16T20:20:20.738Z,15.00
2022-12-16T20:23:05.899Z,17.35
2022-12-16T20:25:51.123Z,16.25
2022-12-16T20:28:37.505Z,16.45
2022-12-16T20:31:24.745Z,16.75
2022-12-16T20:34:14.180Z,26.02
2022-12-16T20:36:59.996Z,24.42
2022-12-16T20:39:51.227Z,25.23
2022-12-16T20:42:42.119Z,28.02
2022-12-16T20:45:27.754Z,20.77
2022-12-16T20:48:13.366Z,17.65
2022-12-16T20:50:58.531Z,18.83
2022-12-16T20:53:44.174Z,19.42
2022-12-16T20:56:29.668Z,22.77
2022-12-16T20:59:14.898Z,23.48
2022-12-16T21:05:05.183Z,18.98
2022-12-16T21:07:50.634Z,17.65
2022-12-16T21:10:37.284Z,19.73
2022-12-16T21:13:34.084Z,24.00
2022-12-16T21:16:21.928Z,26.77
2022-12-16T21:19:07.354Z,33.40
2022-12-16T21:25:02.905Z,22.38
2022-12-16T21:27:48.020Z,22.80
2022-12-16T21:30:33.455Z,24.20
2022-12-16T21:33:18.541Z,22.08
2022-12-16T21:36:12.977Z,19.58
2022-12-16T21:38:58.151Z,18.42
2022-12-16T21:41:43.398Z,17.23
2022-12-16T21:44:28.866Z,16.38
2022-12-16T21:47:14.067Z,16.55
2022-12-16T21:49:59.285Z,18.65
2022-12-16T21:52:44.440Z,20.40
2022-12-16T21:55:29.778Z,26.42
2022-12-16T21:58:15.172Z,22.30
2022-12-16T22:01:00.957Z,24.52
2022-12-16T22:03:52.891Z,24.38
2022-12-16T22:06:40.030Z,23.05
2022-12-16T22:09:27.366Z,20.55
2022-12-16T22:12:12.606Z,20.17
2022-12-16T22:14:57.939Z,18.63
2022-12-16T22:17:42.998Z,19.02
2022-12-16T22:20:28.874Z,17.90
2022-12-16T22:23:14.032Z,18.25
2022-12-16T22:25:59.221Z,24.80
2022-12-16T22:28:44.848Z,22.20
2022-12-16T22:31:30.415Z,20.55
2022-12-16T22:34:15.915Z,20.30
2022-12-16T22:37:01.020Z,19.92
2022-12-16T22:39:46.172Z,20.33
2022-12-16T22:42:31.580Z,24.85
2022-12-16T22:45:17.050Z,24.25
2022-12-16T22:48:02.222Z,22.15
2022-12-16T22:50:47.470Z,25.50
2022-12-16T22:53:33.487Z,28.20
2022-12-16T22:56:18.546Z,23.27
2022-12-16T22:59:03.859Z,19.65
2022-12-16T23:01:49.172Z,19.38
2022-12-16T23:04:34.283Z,23.10
2022-12-16T23:07:20.296Z,34.35
2022-12-16T23:10:05.968Z,27.20
2022-12-16T23:12:51.705Z,25.65
2022-12-16T23:15:37.962Z,32.35
2022-12-16T23:18:22.947Z,27.85
2022-12-16T23:21:09.832Z,24.17
2022-12-16T23:23:55.137Z,20.40
2022-12-16T23:26:42.463Z,20.48
2022-12-16T23:29:27.610Z,18.85
2022-12-16T23:32:12.854Z,23.35
2022-12-16T23:32:29.747Z,14.73
2022-12-16T23:34:59.375Z,19.02
2022-12-16T23:37:44.771Z,16.88
2022-12-16T23:40:30.202Z,18.85
2022-12-16T23:43:15.749Z,25.20
2022-12-16T23:46:02.530Z,25.25
2022-12-16T23:48:47.915Z,25.42
2022-12-16T23:51:33.693Z,28.55
2022-12-16T23:54:19.018Z,27.70
2022-12-16T23:57:04.181Z,23.38
2022-12-16T23:59:49.325Z,19.85
